sensor_id;sensor_type;location;lat;lon;timestamp;P1;durP1;ratioP1;P2;durP2;ratioP2
68700;SDS011;55682;51.114;5.882;2024-03-02T00:01:14;0.83;;;0.82;;
68700;SDS011;55682;51.114;5.882;2024-03-02T00:03:40;0.78;;;0.77;;
68700;SDS011;55682;51.114;5.882;2024-03-02T00:06:07;0.90;;;0.90;;
68700;SDS011;55682;51.114;5.882;2024-03-02T00:08:33;0.68;;;0.68;;
68700;SDS011;55682;51.114;5.882;2024-03-02T00:10:59;0.84;;;0.84;;
68700;SDS011;55682;51.114;5.882;2024-03-02T00:13:28;0.70;;;0.69;;
68700;SDS011;55682;51.114;5.882;2024-03-02T00:15:57;0.87;;;0.87;;
68700;SDS011;55682;51.114;5.882;2024-03-02T00:20:56;0.86;;;0.84;;
68700;SDS011;55682;51.114;5.882;2024-03-02T00:23:23;0.88;;;0.87;;
68700;SDS011;55682;51.114;5.882;2024-03-02T00:25:50;0.81;;;0.81;;
68700;SDS011;55682;51.114;5.882;2024-03-02T00:28:25;0.96;;;0.96;;
68700;SDS011;55682;51.114;5.882;2024-03-02T00:31:04;0.91;;;0.90;;
68700;SDS011;55682;51.114;5.882;2024-03-02T00:33:39;0.86;;;0.85;;
68700;SDS011;55682;51.114;5.882;2024-03-02T00:36:16;0.75;;;0.74;;
68700;SDS011;55682;51.114;5.882;2024-03-02T00:38:50;0.90;;;0.90;;
68700;SDS011;55682;51.114;5.882;2024-03-02T00:41:22;0.86;;;0.86;;
68700;SDS011;55682;51.114;5.882;2024-03-02T00:46:31;0.91;;;0.91;;
68700;SDS011;55682;51.114;5.882;2024-03-02T00:49:03;0.86;;;0.85;;
68700;SDS011;55682;51.114;5.882;2024-03-02T00:51:52;0.92;;;0.90;;
68700;SDS011;55682;51.114;5.882;2024-03-02T00:54:20;0.65;;;0.65;;
68700;SDS011;55682;51.114;5.882;2024-03-02T00:56:48;0.94;;;0.94;;
68700;SDS011;55682;51.114;5.882;2024-03-02T00:59:14;0.91;;;0.91;;
68700;SDS011;55682;51.114;5.882;2024-03-02T01:01:40;0.99;;;0.99;;
68700;SDS011;55682;51.114;5.882;2024-03-02T01:04:07;0.84;;;0.84;;
68700;SDS011;55682;51.114;5.882;2024-03-02T01:06:33;1.11;;;1.11;;
68700;SDS011;55682;51.114;5.882;2024-03-02T01:08:59;1.14;;;1.14;;
68700;SDS011;55682;51.114;5.882;2024-03-02T01:11:24;1.06;;;1.06;;
68700;SDS011;55682;51.114;5.882;2024-03-02T01:13:50;1.07;;;1.07;;
68700;SDS011;55682;51.114;5.882;2024-03-02T01:16:17;1.03;;;1.03;;
68700;SDS011;55682;51.114;5.882;2024-03-02T01:18:43;0.83;;;0.83;;
68700;SDS011;55682;51.114;5.882;2024-03-02T01:21:09;0.74;;;0.74;;
68700;SDS011;55682;51.114;5.882;2024-03-02T01:23:34;0.55;;;0.55;;
68700;SDS011;55682;51.114;5.882;2024-03-02T01:26:00;0.68;;;0.68;;
68700;SDS011;55682;51.114;5.882;2024-03-02T01:28:26;0.50;;;0.50;;
68700;SDS011;55682;51.114;5.882;2024-03-02T01:30:53;0.44;;;0.44;;
68700;SDS011;55682;51.114;5.882;2024-03-02T01:33:19;0.43;;;0.43;;
68700;SDS011;55682;51.114;5.882;2024-03-02T01:35:46;0.29;;;0.29;;
68700;SDS011;55682;51.114;5.882;2024-03-02T01:38:12;0.32;;;0.32;;
68700;SDS011;55682;51.114;5.882;2024-03-02T01:40:38;0.31;;;0.31;;
68700;SDS011;55682;51.114;5.882;2024-03-02T01:43:05;0.33;;;0.33;;
68700;SDS011;55682;51.114;5.882;2024-03-02T01:45:31;0.46;;;0.46;;
68700;SDS011;55682;51.114;5.882;2024-03-02T01:47:57;0.41;;;0.41;;
68700;SDS011;55682;51.114;5.882;2024-03-02T01:52:59;0.38;;;0.37;;
68700;SDS011;55682;51.114;5.882;2024-03-02T01:55:28;0.32;;;0.32;;
68700;SDS011;55682;51.114;5.882;2024-03-02T01:57:55;0.35;;;0.35;;
68700;SDS011;55682;51.114;5.882;2024-03-02T02:00:22;0.33;;;0.32;;
68700;SDS011;55682;51.114;5.882;2024-03-02T02:02:49;0.42;;;0.41;;
68700;SDS011;55682;51.114;5.882;2024-03-02T02:05:16;0.37;;;0.36;;
68700;SDS011;55682;51.114;5.882;2024-03-02T02:07:43;0.39;;;0.38;;
68700;SDS011;55682;51.114;5.882;2024-03-02T02:10:09;0.41;;;0.40;;
68700;SDS011;55682;51.114;5.882;2024-03-02T02:12:36;0.53;;;0.51;;
68700;SDS011;55682;51.114;5.882;2024-03-02T02:15:03;0.61;;;0.60;;
68700;SDS011;55682;51.114;5.882;2024-03-02T02:17:47;0.43;;;0.42;;
68700;SDS011;55682;51.114;5.882;2024-03-02T02:20:13;0.37;;;0.37;;
68700;SDS011;55682;51.114;5.882;2024-03-02T02:22:39;0.43;;;0.42;;
68700;SDS011;55682;51.114;5.882;2024-03-02T02:25:05;0.34;;;0.33;;
68700;SDS011;55682;51.114;5.882;2024-03-02T02:27:31;0.48;;;0.47;;
68700;SDS011;55682;51.114;5.882;2024-03-02T02:29:57;0.35;;;0.35;;
68700;SDS011;55682;51.114;5.882;2024-03-02T02:32:23;0.35;;;0.35;;
68700;SDS011;55682;51.114;5.882;2024-03-02T02:34:52;0.20;;;0.20;;
68700;SDS011;55682;51.114;5.882;2024-03-02T02:37:18;0.37;;;0.36;;
68700;SDS011;55682;51.114;5.882;2024-03-02T02:39:44;0.38;;;0.37;;
68700;SDS011;55682;51.114;5.882;2024-03-02T02:42:11;0.25;;;0.24;;
68700;SDS011;55682;51.114;5.882;2024-03-02T02:44:37;0.25;;;0.25;;
68700;SDS011;55682;51.114;5.882;2024-03-02T02:47:03;0.26;;;0.25;;
68700;SDS011;55682;51.114;5.882;2024-03-02T02:49:29;0.25;;;0.25;;
68700;SDS011;55682;51.114;5.882;2024-03-02T02:51:56;0.28;;;0.28;;
68700;SDS011;55682;51.114;5.882;2024-03-02T02:54:22;0.27;;;0.26;;
68700;SDS011;55682;51.114;5.882;2024-03-02T02:56:48;0.53;;;0.52;;
68700;SDS011;55682;51.114;5.882;2024-03-02T02:59:13;0.24;;;0.24;;
68700;SDS011;55682;51.114;5.882;2024-03-02T03:01:39;0.28;;;0.27;;
68700;SDS011;55682;51.114;5.882;2024-03-02T03:04:05;0.32;;;0.32;;
68700;SDS011;55682;51.114;5.882;2024-03-02T03:06:31;0.26;;;0.26;;
68700;SDS011;55682;51.114;5.882;2024-03-02T03:08:56;0.26;;;0.26;;
68700;SDS011;55682;51.114;5.882;2024-03-02T03:11:22;0.25;;;0.24;;
68700;SDS011;55682;51.114;5.882;2024-03-02T03:13:50;0.22;;;0.22;;
68700;SDS011;55682;51.114;5.882;2024-03-02T03:16:15;0.22;;;0.21;;
68700;SDS011;55682;51.114;5.882;2024-03-02T03:18:41;0.21;;;0.20;;
68700;SDS011;55682;51.114;5.882;2024-03-02T03:21:07;0.24;;;0.24;;
68700;SDS011;55682;51.114;5.882;2024-03-02T03:23:33;0.26;;;0.26;;
68700;SDS011;55682;51.114;5.882;2024-03-02T03:25:58;0.29;;;0.28;;
68700;SDS011;55682;51.114;5.882;2024-03-02T03:28:24;0.20;;;0.20;;
68700;SDS011;55682;51.114;5.882;2024-03-02T03:30:50;0.22;;;0.22;;
68700;SDS011;55682;51.114;5.882;2024-03-02T03:33:16;0.24;;;0.24;;
68700;SDS011;55682;51.114;5.882;2024-03-02T03:35:41;0.23;;;0.23;;
68700;SDS011;55682;51.114;5.882;2024-03-02T03:38:07;0.22;;;0.22;;
68700;SDS011;55682;51.114;5.882;2024-03-02T03:40:34;0.23;;;0.23;;
68700;SDS011;55682;51.114;5.882;2024-03-02T03:43:00;0.26;;;0.26;;
68700;SDS011;55682;51.114;5.882;2024-03-02T03:45:25;0.21;;;0.20;;
68700;SDS011;55682;51.114;5.882;2024-03-02T03:47:52;0.23;;;0.23;;
68700;SDS011;55682;51.114;5.882;2024-03-02T03:50:18;0.27;;;0.27;;
68700;SDS011;55682;51.114;5.882;2024-03-02T03:52:45;0.26;;;0.25;;
68700;SDS011;55682;51.114;5.882;2024-03-02T03:55:10;0.35;;;0.34;;
68700;SDS011;55682;51.114;5.882;2024-03-02T03:57:36;0.36;;;0.35;;
68700;SDS011;55682;51.114;5.882;2024-03-02T04:00:03;0.30;;;0.30;;
68700;SDS011;55682;51.114;5.882;2024-03-02T04:02:37;0.31;;;0.30;;
68700;SDS011;55682;51.114;5.882;2024-03-02T04:05:03;0.22;;;0.21;;
68700;SDS011;55682;51.114;5.882;2024-03-02T04:07:34;0.26;;;0.26;;
68700;SDS011;55682;51.114;5.882;2024-03-02T04:10:07;0.26;;;0.25;;
68700;SDS011;55682;51.114;5.882;2024-03-02T04:12:35;0.28;;;0.27;;
68700;SDS011;55682;51.114;5.882;2024-03-02T04:15:04;0.24;;;0.24;;
68700;SDS011;55682;51.114;5.882;2024-03-02T04:17:31;0.25;;;0.24;;
68700;SDS011;55682;51.114;5.882;2024-03-02T04:19:59;0.24;;;0.24;;
68700;SDS011;55682;51.114;5.882;2024-03-02T04:22:25;0.25;;;0.25;;
68700;SDS011;55682;51.114;5.882;2024-03-02T04:24:52;0.32;;;0.32;;
68700;SDS011;55682;51.114;5.882;2024-03-02T04:27:18;0.30;;;0.29;;
68700;SDS011;55682;51.114;5.882;2024-03-02T04:29:44;0.28;;;0.28;;
68700;SDS011;55682;51.114;5.882;2024-03-02T04:32:09;0.28;;;0.28;;
68700;SDS011;55682;51.114;5.882;2024-03-02T04:34:35;0.27;;;0.27;;
68700;SDS011;55682;51.114;5.882;2024-03-02T04:37:01;0.36;;;0.36;;
68700;SDS011;55682;51.114;5.882;2024-03-02T04:39:27;0.30;;;0.30;;
68700;SDS011;55682;51.114;5.882;2024-03-02T04:41:53;0.34;;;0.34;;
68700;SDS011;55682;51.114;5.882;2024-03-02T04:44:19;0.37;;;0.37;;
68700;SDS011;55682;51.114;5.882;2024-03-02T04:46:45;0.39;;;0.39;;
68700;SDS011;55682;51.114;5.882;2024-03-02T04:49:11;0.43;;;0.43;;
68700;SDS011;55682;51.114;5.882;2024-03-02T04:51:36;0.36;;;0.36;;
68700;SDS011;55682;51.114;5.882;2024-03-02T04:54:02;0.39;;;0.38;;
68700;SDS011;55682;51.114;5.882;2024-03-02T04:56:28;0.34;;;0.34;;
68700;SDS011;55682;51.114;5.882;2024-03-02T04:58:56;0.52;;;0.51;;
68700;SDS011;55682;51.114;5.882;2024-03-02T05:05:10;0.43;;;0.43;;
68700;SDS011;55682;51.114;5.882;2024-03-02T05:07:36;0.48;;;0.48;;
68700;SDS011;55682;51.114;5.882;2024-03-02T05:10:01;0.54;;;0.54;;
68700;SDS011;55682;51.114;5.882;2024-03-02T05:12:27;0.55;;;0.55;;
68700;SDS011;55682;51.114;5.882;2024-03-02T05:15:08;0.62;;;0.62;;
68700;SDS011;55682;51.114;5.882;2024-03-02T05:17:35;0.65;;;0.65;;
68700;SDS011;55682;51.114;5.882;2024-03-02T05:20:02;0.51;;;0.51;;
68700;SDS011;55682;51.114;5.882;2024-03-02T05:22:29;0.47;;;0.47;;
68700;SDS011;55682;51.114;5.882;2024-03-02T05:24:54;0.48;;;0.48;;
68700;SDS011;55682;51.114;5.882;2024-03-02T05:27:20;0.63;;;0.63;;
68700;SDS011;55682;51.114;5.882;2024-03-02T05:29:46;0.60;;;0.60;;
68700;SDS011;55682;51.114;5.882;2024-03-02T05:32:12;0.49;;;0.49;;
68700;SDS011;55682;51.114;5.882;2024-03-02T05:34:38;0.63;;;0.63;;
68700;SDS011;55682;51.114;5.882;2024-03-02T05:37:03;0.59;;;0.59;;
68700;SDS011;55682;51.114;5.882;2024-03-02T05:39:29;0.68;;;0.68;;
68700;SDS011;55682;51.114;5.882;2024-03-02T05:41:55;0.67;;;0.67;;
68700;SDS011;55682;51.114;5.882;2024-03-02T05:44:20;0.64;;;0.64;;
68700;SDS011;55682;51.114;5.882;2024-03-02T05:46:47;0.78;;;0.78;;
68700;SDS011;55682;51.114;5.882;2024-03-02T05:49:13;0.58;;;0.58;;
68700;SDS011;55682;51.114;5.882;2024-03-02T05:51:39;0.56;;;0.56;;
68700;SDS011;55682;51.114;5.882;2024-03-02T05:54:04;0.70;;;0.70;;
68700;SDS011;55682;51.114;5.882;2024-03-02T05:56:30;0.65;;;0.65;;
68700;SDS011;55682;51.114;5.882;2024-03-02T05:58:56;0.70;;;0.70;;
68700;SDS011;55682;51.114;5.882;2024-03-02T06:01:42;0.60;;;0.60;;
68700;SDS011;55682;51.114;5.882;2024-03-02T06:04:09;0.71;;;0.71;;
68700;SDS011;55682;51.114;5.882;2024-03-02T06:06:39;0.56;;;0.56;;
68700;SDS011;55682;51.114;5.882;2024-03-02T06:09:06;0.52;;;0.52;;
68700;SDS011;55682;51.114;5.882;2024-03-02T06:11:38;0.52;;;0.52;;
68700;SDS011;55682;51.114;5.882;2024-03-02T06:14:05;0.50;;;0.50;;
68700;SDS011;55682;51.114;5.882;2024-03-02T06:16:32;0.47;;;0.47;;
68700;SDS011;55682;51.114;5.882;2024-03-02T06:18:58;0.53;;;0.53;;
68700;SDS011;55682;51.114;5.882;2024-03-02T06:21:25;0.63;;;0.63;;
68700;SDS011;55682;51.114;5.882;2024-03-02T06:23:51;0.49;;;0.49;;
68700;SDS011;55682;51.114;5.882;2024-03-02T06:26:17;0.43;;;0.43;;
68700;SDS011;55682;51.114;5.882;2024-03-02T06:28:43;0.44;;;0.44;;
68700;SDS011;55682;51.114;5.882;2024-03-02T06:31:10;0.39;;;0.39;;
68700;SDS011;55682;51.114;5.882;2024-03-02T06:33:35;0.35;;;0.35;;
68700;SDS011;55682;51.114;5.882;2024-03-02T06:36:02;0.43;;;0.42;;
68700;SDS011;55682;51.114;5.882;2024-03-02T06:38:28;0.41;;;0.40;;
68700;SDS011;55682;51.114;5.882;2024-03-02T06:40:54;0.43;;;0.42;;
68700;SDS011;55682;51.114;5.882;2024-03-02T06:43:23;0.34;;;0.33;;
68700;SDS011;55682;51.114;5.882;2024-03-02T06:45:49;0.32;;;0.32;;
68700;SDS011;55682;51.114;5.882;2024-03-02T06:48:19;0.37;;;0.36;;
68700;SDS011;55682;51.114;5.882;2024-03-02T06:50:46;0.30;;;0.30;;
68700;SDS011;55682;51.114;5.882;2024-03-02T06:53:13;0.40;;;0.39;;
68700;SDS011;55682;51.114;5.882;2024-03-02T06:55:39;0.37;;;0.37;;
68700;SDS011;55682;51.114;5.882;2024-03-02T06:58:05;0.38;;;0.37;;
68700;SDS011;55682;51.114;5.882;2024-03-02T07:00:30;0.46;;;0.45;;
68700;SDS011;55682;51.114;5.882;2024-03-02T07:02:59;0.46;;;0.44;;
68700;SDS011;55682;51.114;5.882;2024-03-02T07:05:25;0.39;;;0.38;;
68700;SDS011;55682;51.114;5.882;2024-03-02T07:07:50;0.43;;;0.41;;
68700;SDS011;55682;51.114;5.882;2024-03-02T07:10:17;0.39;;;0.37;;
68700;SDS011;55682;51.114;5.882;2024-03-02T07:12:42;0.39;;;0.37;;
68700;SDS011;55682;51.114;5.882;2024-03-02T07:15:10;0.41;;;0.39;;
68700;SDS011;55682;51.114;5.882;2024-03-02T07:17:53;0.48;;;0.46;;
68700;SDS011;55682;51.114;5.882;2024-03-02T07:20:19;0.50;;;0.47;;
68700;SDS011;55682;51.114;5.882;2024-03-02T07:22:45;0.52;;;0.49;;
68700;SDS011;55682;51.114;5.882;2024-03-02T07:25:11;0.47;;;0.44;;
68700;SDS011;55682;51.114;5.882;2024-03-02T07:27:38;0.49;;;0.45;;
68700;SDS011;55682;51.114;5.882;2024-03-02T07:30:04;0.49;;;0.46;;
68700;SDS011;55682;51.114;5.882;2024-03-02T07:32:30;0.44;;;0.41;;
68700;SDS011;55682;51.114;5.882;2024-03-02T07:34:56;0.36;;;0.34;;
68700;SDS011;55682;51.114;5.882;2024-03-02T07:37:22;0.49;;;0.45;;
68700;SDS011;55682;51.114;5.882;2024-03-02T07:39:48;0.50;;;0.46;;
68700;SDS011;55682;51.114;5.882;2024-03-02T07:42:15;0.46;;;0.42;;
68700;SDS011;55682;51.114;5.882;2024-03-02T07:44:41;0.53;;;0.49;;
68700;SDS011;55682;51.114;5.882;2024-03-02T07:47:07;0.47;;;0.43;;
68700;SDS011;55682;51.114;5.882;2024-03-02T07:49:33;0.53;;;0.48;;
68700;SDS011;55682;51.114;5.882;2024-03-02T07:51:59;0.56;;;0.52;;
68700;SDS011;55682;51.114;5.882;2024-03-02T07:54:25;0.51;;;0.48;;
68700;SDS011;55682;51.114;5.882;2024-03-02T07:56:51;0.50;;;0.46;;
68700;SDS011;55682;51.114;5.882;2024-03-02T07:59:16;0.49;;;0.45;;
68700;SDS011;55682;51.114;5.882;2024-03-02T08:01:42;0.49;;;0.45;;
68700;SDS011;55682;51.114;5.882;2024-03-02T08:04:08;0.49;;;0.45;;
68700;SDS011;55682;51.114;5.882;2024-03-02T08:06:34;0.52;;;0.47;;
68700;SDS011;55682;51.114;5.882;2024-03-02T08:09:00;0.43;;;0.39;;
68700;SDS011;55682;51.114;5.882;2024-03-02T08:11:26;0.56;;;0.51;;
68700;SDS011;55682;51.114;5.882;2024-03-02T08:13:52;0.43;;;0.40;;
68700;SDS011;55682;51.114;5.882;2024-03-02T08:16:20;0.45;;;0.41;;
68700;SDS011;55682;51.114;5.882;2024-03-02T08:18:49;0.48;;;0.43;;
68700;SDS011;55682;51.114;5.882;2024-03-02T08:21:15;0.47;;;0.43;;
68700;SDS011;55682;51.114;5.882;2024-03-02T08:23:42;0.41;;;0.37;;
68700;SDS011;55682;51.114;5.882;2024-03-02T08:29:56;0.51;;;0.45;;
68700;SDS011;55682;51.114;5.882;2024-03-02T08:36:09;0.58;;;0.52;;
68700;SDS011;55682;51.114;5.882;2024-03-02T08:38:35;0.48;;;0.44;;
68700;SDS011;55682;51.114;5.882;2024-03-02T08:41:01;0.39;;;0.35;;
68700;SDS011;55682;51.114;5.882;2024-03-02T08:43:28;0.47;;;0.42;;
68700;SDS011;55682;51.114;5.882;2024-03-02T08:45:55;0.49;;;0.44;;
68700;SDS011;55682;51.114;5.882;2024-03-02T08:48:21;0.69;;;0.62;;
68700;SDS011;55682;51.114;5.882;2024-03-02T08:50:46;0.64;;;0.58;;
68700;SDS011;55682;51.114;5.882;2024-03-02T08:53:12;0.44;;;0.41;;
68700;SDS011;55682;51.114;5.882;2024-03-02T08:55:38;0.54;;;0.50;;
68700;SDS011;55682;51.114;5.882;2024-03-02T08:58:04;0.50;;;0.47;;
68700;SDS011;55682;51.114;5.882;2024-03-02T09:00:30;0.45;;;0.42;;
68700;SDS011;55682;51.114;5.882;2024-03-02T09:02:56;0.59;;;0.56;;
68700;SDS011;55682;51.114;5.882;2024-03-02T09:05:25;0.47;;;0.45;;
68700;SDS011;55682;51.114;5.882;2024-03-02T09:07:51;0.55;;;0.52;;
68700;SDS011;55682;51.114;5.882;2024-03-02T09:10:16;0.58;;;0.55;;
68700;SDS011;55682;51.114;5.882;2024-03-02T09:12:42;0.60;;;0.57;;
68700;SDS011;55682;51.114;5.882;2024-03-02T09:15:08;0.50;;;0.47;;
68700;SDS011;55682;51.114;5.882;2024-03-02T09:17:34;0.50;;;0.47;;
68700;SDS011;55682;51.114;5.882;2024-03-02T09:20:00;0.47;;;0.44;;
68700;SDS011;55682;51.114;5.882;2024-03-02T09:22:26;0.50;;;0.48;;
68700;SDS011;55682;51.114;5.882;2024-03-02T09:24:52;0.58;;;0.55;;
68700;SDS011;55682;51.114;5.882;2024-03-02T09:27:18;0.44;;;0.42;;
68700;SDS011;55682;51.114;5.882;2024-03-02T09:29:44;0.51;;;0.48;;
68700;SDS011;55682;51.114;5.882;2024-03-02T09:32:12;0.52;;;0.50;;
68700;SDS011;55682;51.114;5.882;2024-03-02T09:34:39;0.60;;;0.57;;
68700;SDS011;55682;51.114;5.882;2024-03-02T09:37:06;0.62;;;0.59;;
68700;SDS011;55682;51.114;5.882;2024-03-02T09:39:31;0.59;;;0.56;;
68700;SDS011;55682;51.114;5.882;2024-03-02T09:41:58;0.63;;;0.59;;
68700;SDS011;55682;51.114;5.882;2024-03-02T09:44:25;0.60;;;0.55;;
68700;SDS011;55682;51.114;5.882;2024-03-02T09:46:52;0.48;;;0.45;;
68700;SDS011;55682;51.114;5.882;2024-03-02T09:49:18;0.44;;;0.40;;
68700;SDS011;55682;51.114;5.882;2024-03-02T09:51:47;0.42;;;0.39;;
68700;SDS011;55682;51.114;5.882;2024-03-02T09:54:15;0.58;;;0.54;;
68700;SDS011;55682;51.114;5.882;2024-03-02T09:56:41;0.53;;;0.49;;
68700;SDS011;55682;51.114;5.882;2024-03-02T09:59:08;0.44;;;0.40;;
68700;SDS011;55682;51.114;5.882;2024-03-02T10:01:34;0.84;;;0.77;;
68700;SDS011;55682;51.114;5.882;2024-03-02T10:04:00;0.60;;;0.54;;
68700;SDS011;55682;51.114;5.882;2024-03-02T10:06:28;0.62;;;0.56;;
68700;SDS011;55682;51.114;5.882;2024-03-02T10:08:55;0.69;;;0.64;;
68700;SDS011;55682;51.114;5.882;2024-03-02T10:11:28;0.67;;;0.63;;
68700;SDS011;55682;51.114;5.882;2024-03-02T10:14:09;0.79;;;0.75;;
68700;SDS011;55682;51.114;5.882;2024-03-02T10:16:42;0.75;;;0.71;;
68700;SDS011;55682;51.114;5.882;2024-03-02T10:19:22;0.68;;;0.66;;
68700;SDS011;55682;51.114;5.882;2024-03-02T10:21:53;0.87;;;0.83;;
68700;SDS011;55682;51.114;5.882;2024-03-02T10:24:20;0.83;;;0.79;;
68700;SDS011;55682;51.114;5.882;2024-03-02T10:26:47;0.65;;;0.61;;
68700;SDS011;55682;51.114;5.882;2024-03-02T10:29:14;0.72;;;0.68;;
68700;SDS011;55682;51.114;5.882;2024-03-02T10:31:40;0.70;;;0.65;;
68700;SDS011;55682;51.114;5.882;2024-03-02T10:34:09;0.84;;;0.80;;
68700;SDS011;55682;51.114;5.882;2024-03-02T10:36:36;0.82;;;0.78;;
68700;SDS011;55682;51.114;5.882;2024-03-02T10:39:05;0.69;;;0.66;;
68700;SDS011;55682;51.114;5.882;2024-03-02T10:41:33;0.56;;;0.54;;
68700;SDS011;55682;51.114;5.882;2024-03-02T10:44:01;0.55;;;0.53;;
68700;SDS011;55682;51.114;5.882;2024-03-02T10:46:29;0.56;;;0.55;;
68700;SDS011;55682;51.114;5.882;2024-03-02T10:48:56;0.67;;;0.65;;
68700;SDS011;55682;51.114;5.882;2024-03-02T10:51:26;0.54;;;0.52;;
68700;SDS011;55682;51.114;5.882;2024-03-02T10:53:54;0.45;;;0.44;;
68700;SDS011;55682;51.114;5.882;2024-03-02T10:56:30;0.46;;;0.44;;
68700;SDS011;55682;51.114;5.882;2024-03-02T10:59:23;0.56;;;0.53;;
68700;SDS011;55682;51.114;5.882;2024-03-02T11:02:00;0.45;;;0.43;;
68700;SDS011;55682;51.114;5.882;2024-03-02T11:04:27;0.51;;;0.48;;
68700;SDS011;55682;51.114;5.882;2024-03-02T11:06:56;0.54;;;0.51;;
68700;SDS011;55682;51.114;5.882;2024-03-02T11:09:37;0.53;;;0.50;;
68700;SDS011;55682;51.114;5.882;2024-03-02T11:12:11;0.65;;;0.61;;
68700;SDS011;55682;51.114;5.882;2024-03-02T11:14:44;0.50;;;0.47;;
68700;SDS011;55682;51.114;5.882;2024-03-02T11:17:11;0.46;;;0.43;;
68700;SDS011;55682;51.114;5.882;2024-03-02T11:19:43;0.66;;;0.61;;
68700;SDS011;55682;51.114;5.882;2024-03-02T11:22:10;0.57;;;0.53;;
68700;SDS011;55682;51.114;5.882;2024-03-02T11:24:37;0.56;;;0.52;;
68700;SDS011;55682;51.114;5.882;2024-03-02T11:27:04;0.45;;;0.42;;
68700;SDS011;55682;51.114;5.882;2024-03-02T11:34:41;0.61;;;0.55;;
68700;SDS011;55682;51.114;5.882;2024-03-02T11:37:12;0.52;;;0.47;;
68700;SDS011;55682;51.114;5.882;2024-03-02T11:39:40;0.55;;;0.49;;
68700;SDS011;55682;51.114;5.882;2024-03-02T11:42:09;0.64;;;0.57;;
68700;SDS011;55682;51.114;5.882;2024-03-02T11:44:39;0.56;;;0.50;;
68700;SDS011;55682;51.114;5.882;2024-03-02T11:47:08;1.51;;;1.35;;
68700;SDS011;55682;51.114;5.882;2024-03-02T11:49:37;0.83;;;0.77;;
68700;SDS011;55682;51.114;5.882;2024-03-02T11:52:07;0.53;;;0.49;;
68700;SDS011;55682;51.114;5.882;2024-03-02T11:54:39;0.51;;;0.47;;
68700;SDS011;55682;51.114;5.882;2024-03-02T11:57:15;0.57;;;0.52;;
68700;SDS011;55682;51.114;5.882;2024-03-02T11:59:42;0.47;;;0.43;;
68700;SDS011;55682;51.114;5.882;2024-03-02T12:02:19;0.48;;;0.43;;
68700;SDS011;55682;51.114;5.882;2024-03-02T12:04:46;0.50;;;0.45;;
68700;SDS011;55682;51.114;5.882;2024-03-02T12:07:19;0.52;;;0.46;;
68700;SDS011;55682;51.114;5.882;2024-03-02T12:10:10;0.48;;;0.43;;
68700;SDS011;55682;51.114;5.882;2024-03-02T12:12:35;0.58;;;0.52;;
68700;SDS011;55682;51.114;5.882;2024-03-02T12:15:03;0.56;;;0.49;;
68700;SDS011;55682;51.114;5.882;2024-03-02T12:17:29;0.46;;;0.41;;
68700;SDS011;55682;51.114;5.882;2024-03-02T12:19:55;0.48;;;0.43;;
68700;SDS011;55682;51.114;5.882;2024-03-02T12:22:21;0.59;;;0.53;;
68700;SDS011;55682;51.114;5.882;2024-03-02T12:24:47;0.66;;;0.59;;
68700;SDS011;55682;51.114;5.882;2024-03-02T12:27:14;0.60;;;0.54;;
68700;SDS011;55682;51.114;5.882;2024-03-02T12:29:41;0.54;;;0.50;;
68700;SDS011;55682;51.114;5.882;2024-03-02T12:32:08;0.54;;;0.49;;
68700;SDS011;55682;51.114;5.882;2024-03-02T12:34:34;0.63;;;0.58;;
68700;SDS011;55682;51.114;5.882;2024-03-02T12:37:00;0.54;;;0.49;;
68700;SDS011;55682;51.114;5.882;2024-03-02T12:39:26;0.60;;;0.55;;
68700;SDS011;55682;51.114;5.882;2024-03-02T12:41:52;0.73;;;0.66;;
68700;SDS011;55682;51.114;5.882;2024-03-02T12:44:19;0.66;;;0.60;;
68700;SDS011;55682;51.114;5.882;2024-03-02T12:46:46;0.53;;;0.48;;
68700;SDS011;55682;51.114;5.882;2024-03-02T12:49:13;0.70;;;0.63;;
68700;SDS011;55682;51.114;5.882;2024-03-02T12:51:41;0.79;;;0.73;;
68700;SDS011;55682;51.114;5.882;2024-03-02T12:54:08;0.80;;;0.73;;
68700;SDS011;55682;51.114;5.882;2024-03-02T12:56:36;0.81;;;0.74;;
68700;SDS011;55682;51.114;5.882;2024-03-02T12:59:03;0.77;;;0.70;;
68700;SDS011;55682;51.114;5.882;2024-03-02T13:01:30;0.71;;;0.65;;
68700;SDS011;55682;51.114;5.882;2024-03-02T13:03:57;0.68;;;0.63;;
68700;SDS011;55682;51.114;5.882;2024-03-02T13:06:24;0.63;;;0.58;;
68700;SDS011;55682;51.114;5.882;2024-03-02T13:08:53;0.71;;;0.66;;
68700;SDS011;55682;51.114;5.882;2024-03-02T13:11:20;0.77;;;0.71;;
68700;SDS011;55682;51.114;5.882;2024-03-02T13:13:49;0.57;;;0.53;;
68700;SDS011;55682;51.114;5.882;2024-03-02T13:16:15;0.72;;;0.67;;
68700;SDS011;55682;51.114;5.882;2024-03-02T13:18:42;0.70;;;0.65;;
68700;SDS011;55682;51.114;5.882;2024-03-02T13:21:10;0.64;;;0.60;;
68700;SDS011;55682;51.114;5.882;2024-03-02T13:23:35;0.61;;;0.57;;
68700;SDS011;55682;51.114;5.882;2024-03-02T13:26:02;0.57;;;0.53;;
68700;SDS011;55682;51.114;5.882;2024-03-02T13:28:28;0.54;;;0.51;;
68700;SDS011;55682;51.114;5.882;2024-03-02T13:30:53;0.65;;;0.61;;
68700;SDS011;55682;51.114;5.882;2024-03-02T13:33:19;0.57;;;0.54;;
68700;SDS011;55682;51.114;5.882;2024-03-02T13:35:56;1.37;;;1.31;;
68700;SDS011;55682;51.114;5.882;2024-03-02T13:38:22;0.44;;;0.42;;
68700;SDS011;55682;51.114;5.882;2024-03-02T13:40:49;0.76;;;0.72;;
68700;SDS011;55682;51.114;5.882;2024-03-02T13:43:16;0.52;;;0.50;;
68700;SDS011;55682;51.114;5.882;2024-03-02T13:45:43;0.52;;;0.50;;
68700;SDS011;55682;51.114;5.882;2024-03-02T13:48:09;0.62;;;0.60;;
68700;SDS011;55682;51.114;5.882;2024-03-02T13:50:35;0.60;;;0.58;;
68700;SDS011;55682;51.114;5.882;2024-03-02T13:53:00;0.63;;;0.61;;
68700;SDS011;55682;51.114;5.882;2024-03-02T13:55:28;0.68;;;0.66;;
68700;SDS011;55682;51.114;5.882;2024-03-02T13:57:54;0.54;;;0.52;;
68700;SDS011;55682;51.114;5.882;2024-03-02T14:00:20;0.56;;;0.54;;
68700;SDS011;55682;51.114;5.882;2024-03-02T14:02:46;0.49;;;0.48;;
68700;SDS011;55682;51.114;5.882;2024-03-02T14:05:12;0.55;;;0.54;;
68700;SDS011;55682;51.114;5.882;2024-03-02T14:07:39;0.61;;;0.59;;
68700;SDS011;55682;51.114;5.882;2024-03-02T14:10:05;0.75;;;0.75;;
68700;SDS011;55682;51.114;5.882;2024-03-02T14:12:31;0.58;;;0.58;;
68700;SDS011;55682;51.114;5.882;2024-03-02T14:14:57;0.60;;;0.60;;
68700;SDS011;55682;51.114;5.882;2024-03-02T14:17:28;0.76;;;0.76;;
68700;SDS011;55682;51.114;5.882;2024-03-02T14:19:54;0.70;;;0.69;;
68700;SDS011;55682;51.114;5.882;2024-03-02T14:26:07;0.79;;;0.79;;
68700;SDS011;55682;51.114;5.882;2024-03-02T14:28:33;0.67;;;0.67;;
68700;SDS011;55682;51.114;5.882;2024-03-02T14:30:59;0.72;;;0.72;;
68700;SDS011;55682;51.114;5.882;2024-03-02T14:33:26;0.68;;;0.68;;
68700;SDS011;55682;51.114;5.882;2024-03-02T14:35:53;0.58;;;0.58;;
68700;SDS011;55682;51.114;5.882;2024-03-02T14:38:19;0.59;;;0.59;;
68700;SDS011;55682;51.114;5.882;2024-03-02T14:40:45;0.65;;;0.65;;
68700;SDS011;55682;51.114;5.882;2024-03-02T14:43:11;0.74;;;0.74;;
68700;SDS011;55682;51.114;5.882;2024-03-02T14:45:37;0.57;;;0.57;;
68700;SDS011;55682;51.114;5.882;2024-03-02T14:48:03;0.64;;;0.64;;
68700;SDS011;55682;51.114;5.882;2024-03-02T14:50:29;0.50;;;0.50;;
68700;SDS011;55682;51.114;5.882;2024-03-02T14:52:55;0.55;;;0.55;;
68700;SDS011;55682;51.114;5.882;2024-03-02T14:55:23;0.47;;;0.47;;
68700;SDS011;55682;51.114;5.882;2024-03-02T14:57:49;0.57;;;0.57;;
68700;SDS011;55682;51.114;5.882;2024-03-02T15:04:02;0.54;;;0.54;;
68700;SDS011;55682;51.114;5.882;2024-03-02T15:06:28;0.62;;;0.62;;
68700;SDS011;55682;51.114;5.882;2024-03-02T15:08:53;0.55;;;0.55;;
68700;SDS011;55682;51.114;5.882;2024-03-02T15:11:20;0.61;;;0.61;;
68700;SDS011;55682;51.114;5.882;2024-03-02T15:13:48;0.56;;;0.56;;
68700;SDS011;55682;51.114;5.882;2024-03-02T15:16:14;0.67;;;0.67;;
68700;SDS011;55682;51.114;5.882;2024-03-02T15:18:47;0.54;;;0.54;;
68700;SDS011;55682;51.114;5.882;2024-03-02T15:21:13;0.66;;;0.66;;